sensor_id;sensor_type;location;lat;lon;timestamp;P1;durP1;ratioP1;P2;durP2;ratioP2
74473;SDS011;62922;-6.168;106.796;2022-12-07T00:01:06;30.02;;;20.20;;
74473;SDS011;62922;-6.168;106.796;2022-12-07T00:03:34;35.72;;;21.15;;
74473;SDS011;62922;-6.168;106.796;2022-12-07T00:06:04;30.02;;;20.83;;
74473;SDS011;62922;-6.168;106.796;2022-12-07T00:08:32;31.17;;;20.60;;
74473;SDS011;62922;-6.168;106.796;2022-12-07T00:11:03;27.20;;;20.02;;
74473;SDS011;62922;-6.168;106.796;2022-12-07T00:13:34;30.80;;;20.88;;
74473;SDS011;62922;-6.168;106.796;2022-12-07T00:16:03;30.60;;;20.73;;
74473;SDS011;62922;-6.168;106.796;2022-12-07T00:18:33;31.20;;;20.60;;
74473;SDS011;62922;-6.168;106.796;2022-12-07T00:21:05;30.10;;;20.17;;
74473;SDS011;62922;-6.168;106.796;2022-12-07T00:23:32;29.67;;;20.15;;
74473;SDS011;62922;-6.168;106.796;2022-12-07T00:26:09;29.60;;;20.65;;
74473;SDS011;62922;-6.168;106.796;2022-12-07T00:28:39;31.98;;;20.33;;
74473;SDS011;62922;-6.168;106.796;2022-12-07T00:31:07;26.50;;;19.98;;
74473;SDS011;62922;-6.168;106.796;2022-12-07T00:33:35;31.33;;;21.50;;
74473;SDS011;62922;-6.168;106.796;2022-12-07T00:36:05;26.73;;;20.35;;
74473;SDS011;62922;-6.168;106.796;2022-12-07T00:38:34;28.33;;;21.02;;
74473;SDS011;62922;-6.168;106.796;2022-12-07T00:41:03;28.45;;;20.30;;
74473;SDS011;62922;-6.168;106.796;2022-12-07T00:43:31;29.33;;;20.88;;
74473;SDS011;62922;-6.168;106.796;2022-12-07T00:45:58;31.92;;;20.60;;
74473;SDS011;62922;-6.168;106.796;2022-12-07T00:48:25;31.05;;;20.92;;
74473;SDS011;62922;-6.168;106.796;2022-12-07T00:50:51;29.58;;;20.60;;
74473;SDS011;62922;-6.168;106.796;2022-12-07T00:53:17;29.77;;;21.60;;
74473;SDS011;62922;-6.168;106.796;2022-12-07T00:55:44;30.17;;;20.80;;
74473;SDS011;62922;-6.168;106.796;2022-12-07T00:58:11;29.38;;;20.08;;
74473;SDS011;62922;-6.168;106.796;2022-12-07T01:00:38;27.67;;;19.88;;
74473;SDS011;62922;-6.168;106.796;2022-12-07T01:03:06;30.25;;;21.33;;
74473;SDS011;62922;-6.168;106.796;2022-12-07T01:05:33;32.13;;;21.92;;
74473;SDS011;62922;-6.168;106.796;2022-12-07T01:08:00;31.42;;;20.35;;
74473;SDS011;62922;-6.168;106.796;2022-12-07T01:10:27;33.38;;;22.80;;
74473;SDS011;62922;-6.168;106.796;2022-12-07T01:12:55;29.17;;;22.25;;
74473;SDS011;62922;-6.168;106.796;2022-12-07T01:15:22;34.83;;;21.58;;
74473;SDS011;62922;-6.168;106.796;2022-12-07T01:17:50;31.45;;;21.58;;
74473;SDS011;62922;-6.168;106.796;2022-12-07T01:20:17;29.75;;;21.48;;
74473;SDS011;62922;-6.168;106.796;2022-12-07T01:22:43;31.40;;;22.13;;
74473;SDS011;62922;-6.168;106.796;2022-12-07T01:25:10;28.88;;;20.88;;
74473;SDS011;62922;-6.168;106.796;2022-12-07T01:27:37;30.02;;;21.10;;
74473;SDS011;62922;-6.168;106.796;2022-12-07T01:30:04;28.42;;;20.92;;
74473;SDS011;62922;-6.168;106.796;2022-12-07T01:32:32;27.90;;;20.10;;
74473;SDS011;62922;-6.168;106.796;2022-12-07T01:34:59;29.65;;;21.10;;
74473;SDS011;62922;-6.168;106.796;2022-12-07T01:37:25;31.00;;;21.63;;
74473;SDS011;62922;-6.168;106.796;2022-12-07T01:39:51;29.13;;;21.63;;
74473;SDS011;62922;-6.168;106.796;2022-12-07T01:42:20;31.40;;;21.05;;
74473;SDS011;62922;-6.168;106.796;2022-12-07T01:45:20;27.73;;;20.55;;
74473;SDS011;62922;-6.168;106.796;2022-12-07T01:47:35;26.13;;;20.40;;
74473;SDS011;62922;-6.168;106.796;2022-12-07T01:50:02;32.03;;;21.10;;
74473;SDS011;62922;-6.168;106.796;2022-12-07T01:52:30;29.73;;;20.70;;
74473;SDS011;62922;-6.168;106.796;2022-12-07T01:55:01;28.42;;;20.52;;
74473;SDS011;62922;-6.168;106.796;2022-12-07T01:57:31;30.05;;;21.00;;
74473;SDS011;62922;-6.168;106.796;2022-12-07T02:00:01;28.63;;;20.40;;
74473;SDS011;62922;-6.168;106.796;2022-12-07T02:02:33;27.33;;;19.45;;
74473;SDS011;62922;-6.168;106.796;2022-12-07T02:05:02;28.50;;;20.50;;
74473;SDS011;62922;-6.168;106.796;2022-12-07T02:07:31;28.73;;;20.73;;
74473;SDS011;62922;-6.168;106.796;2022-12-07T02:12:32;32.13;;;21.53;;
74473;SDS011;62922;-6.168;106.796;2022-12-07T02:14:58;27.55;;;19.60;;
74473;SDS011;62922;-6.168;106.796;2022-12-07T02:25:42;26.52;;;20.13;;
74473;SDS011;62922;-6.168;106.796;2022-12-07T02:30:44;29.23;;;20.85;;
74473;SDS011;62922;-6.168;106.796;2022-12-07T02:33:14;27.77;;;19.98;;
74473;SDS011;62922;-6.168;106.796;2022-12-07T02:35:48;25.83;;;18.45;;
74473;SDS011;62922;-6.168;106.796;2022-12-07T02:40:52;27.92;;;19.58;;
74473;SDS011;62922;-6.168;106.796;2022-12-07T02:43:23;28.17;;;19.75;;
74473;SDS011;62922;-6.168;106.796;2022-12-07T02:46:06;30.10;;;20.10;;
74473;SDS011;62922;-6.168;106.796;2022-12-07T02:48:36;27.70;;;20.40;;
74473;SDS011;62922;-6.168;106.796;2022-12-07T02:51:05;28.23;;;21.55;;
74473;SDS011;62922;-6.168;106.796;2022-12-07T02:56:03;29.33;;;20.58;;
74473;SDS011;62922;-6.168;106.796;2022-12-07T03:01:11;27.42;;;20.65;;
74473;SDS011;62922;-6.168;106.796;2022-12-07T03:03:56;24.42;;;18.90;;
74473;SDS011;62922;-6.168;106.796;2022-12-07T03:06:41;26.27;;;20.60;;
74473;SDS011;62922;-6.168;106.796;2022-12-07T03:09:14;32.33;;;21.23;;
74473;SDS011;62922;-6.168;106.796;2022-12-07T03:11:47;25.95;;;21.15;;
74473;SDS011;62922;-6.168;106.796;2022-12-07T03:16:50;33.42;;;20.40;;
74473;SDS011;62922;-6.168;106.796;2022-12-07T03:19:21;28.33;;;21.08;;
74473;SDS011;62922;-6.168;106.796;2022-12-07T03:21:51;30.10;;;20.92;;
74473;SDS011;62922;-6.168;106.796;2022-12-07T03:24:24;30.67;;;20.30;;
74473;SDS011;62922;-6.168;106.796;2022-12-07T03:27:12;30.73;;;21.35;;
74473;SDS011;62922;-6.168;106.796;2022-12-07T03:29:50;30.92;;;21.77;;
74473;SDS011;62922;-6.168;106.796;2022-12-07T03:32:26;26.35;;;19.60;;
74473;SDS011;62922;-6.168;106.796;2022-12-07T03:40:54;28.30;;;20.45;;
74473;SDS011;62922;-6.168;106.796;2022-12-07T03:43:05;33.15;;;23.52;;
74473;SDS011;62922;-6.168;106.796;2022-12-07T03:45:41;27.25;;;21.50;;
74473;SDS011;62922;-6.168;106.796;2022-12-07T03:50:49;28.35;;;21.73;;
74473;SDS011;62922;-6.168;106.796;2022-12-07T03:55:58;28.80;;;21.38;;
74473;SDS011;62922;-6.168;106.796;2022-12-07T03:58:27;29.13;;;22.35;;
74473;SDS011;62922;-6.168;106.796;2022-12-07T04:00:55;35.35;;;24.85;;
74473;SDS011;62922;-6.168;106.796;2022-12-07T04:03:24;32.20;;;24.63;;
74473;SDS011;62922;-6.168;106.796;2022-12-07T04:05:50;29.65;;;23.08;;
74473;SDS011;62922;-6.168;106.796;2022-12-07T04:08:19;30.00;;;23.25;;
74473;SDS011;62922;-6.168;106.796;2022-12-07T04:10:45;30.48;;;23.65;;
74473;SDS011;62922;-6.168;106.796;2022-12-07T04:13:12;33.83;;;23.65;;
74473;SDS011;62922;-6.168;106.796;2022-12-07T04:15:38;30.35;;;23.98;;
74473;SDS011;62922;-6.168;106.796;2022-12-07T04:18:04;33.53;;;23.73;;
74473;SDS011;62922;-6.168;106.796;2022-12-07T04:20:31;29.92;;;22.80;;
74473;SDS011;62922;-6.168;106.796;2022-12-07T04:22:57;30.05;;;23.73;;
74473;SDS011;62922;-6.168;106.796;2022-12-07T04:25:23;34.90;;;26.35;;
74473;SDS011;62922;-6.168;106.796;2022-12-07T04:27:50;37.28;;;25.13;;
74473;SDS011;62922;-6.168;106.796;2022-12-07T04:30:16;38.95;;;25.60;;
74473;SDS011;62922;-6.168;106.796;2022-12-07T04:32:43;33.00;;;24.65;;
74473;SDS011;62922;-6.168;106.796;2022-12-07T04:35:09;33.88;;;25.45;;
74473;SDS011;62922;-6.168;106.796;2022-12-07T04:37:35;36.25;;;25.67;;
74473;SDS011;62922;-6.168;106.796;2022-12-07T04:40:06;32.35;;;24.02;;
74473;SDS011;62922;-6.168;106.796;2022-12-07T04:42:36;36.13;;;27.53;;
74473;SDS011;62922;-6.168;106.796;2022-12-07T04:45:03;35.15;;;28.13;;
74473;SDS011;62922;-6.168;106.796;2022-12-07T04:47:30;35.78;;;26.40;;
74473;SDS011;62922;-6.168;106.796;2022-12-07T04:49:56;33.58;;;25.80;;
74473;SDS011;62922;-6.168;106.796;2022-12-07T04:52:23;34.67;;;26.23;;
74473;SDS011;62922;-6.168;106.796;2022-12-07T04:54:49;36.58;;;27.17;;
74473;SDS011;62922;-6.168;106.796;2022-12-07T04:57:15;33.00;;;25.30;;
74473;SDS011;62922;-6.168;106.796;2022-12-07T04:59:41;34.70;;;26.55;;
74473;SDS011;62922;-6.168;106.796;2022-12-07T05:02:08;34.47;;;26.55;;
74473;SDS011;62922;-6.168;106.796;2022-12-07T05:04:34;31.83;;;25.40;;
74473;SDS011;62922;-6.168;106.796;2022-12-07T05:07:00;32.65;;;24.75;;
74473;SDS011;62922;-6.168;106.796;2022-12-07T05:09:26;31.73;;;24.27;;
74473;SDS011;62922;-6.168;106.796;2022-12-07T05:11:53;30.85;;;23.67;;
74473;SDS011;62922;-6.168;106.796;2022-12-07T05:14:19;33.88;;;24.27;;
74473;SDS011;62922;-6.168;106.796;2022-12-07T05:16:47;34.20;;;24.83;;
74473;SDS011;62922;-6.168;106.796;2022-12-07T05:19:15;32.30;;;24.25;;
74473;SDS011;62922;-6.168;106.796;2022-12-07T05:21:42;28.85;;;22.80;;
74473;SDS011;62922;-6.168;106.796;2022-12-07T05:24:09;31.98;;;24.38;;
74473;SDS011;62922;-6.168;106.796;2022-12-07T05:26:38;27.88;;;22.35;;
74473;SDS011;62922;-6.168;106.796;2022-12-07T05:29:04;30.75;;;22.95;;
74473;SDS011;62922;-6.168;106.796;2022-12-07T05:31:31;35.05;;;23.25;;
74473;SDS011;62922;-6.168;106.796;2022-12-07T05:33:57;29.90;;;22.90;;
74473;SDS011;62922;-6.168;106.796;2022-12-07T05:36:23;31.77;;;23.15;;
74473;SDS011;62922;-6.168;106.796;2022-12-07T05:38:50;29.98;;;22.30;;
74473;SDS011;62922;-6.168;106.796;2022-12-07T05:41:19;30.95;;;22.85;;
74473;SDS011;62922;-6.168;106.796;2022-12-07T05:43:48;32.05;;;22.90;;
74473;SDS011;62922;-6.168;106.796;2022-12-07T05:46:14;26.35;;;22.20;;
74473;SDS011;62922;-6.168;106.796;2022-12-07T05:48:40;28.80;;;23.02;;
74473;SDS011;62922;-6.168;106.796;2022-12-07T05:51:06;32.47;;;23.50;;
74473;SDS011;62922;-6.168;106.796;2022-12-07T05:53:33;30.42;;;21.85;;
74473;SDS011;62922;-6.168;106.796;2022-12-07T05:55:59;27.13;;;22.95;;
74473;SDS011;62922;-6.168;106.796;2022-12-07T05:58:26;29.33;;;22.27;;
74473;SDS011;62922;-6.168;106.796;2022-12-07T06:00:55;28.63;;;21.95;;
74473;SDS011;62922;-6.168;106.796;2022-12-07T06:03:21;29.90;;;22.55;;
74473;SDS011;62922;-6.168;106.796;2022-12-07T06:05:48;28.85;;;23.23;;
74473;SDS011;62922;-6.168;106.796;2022-12-07T06:08:14;32.78;;;22.95;;
74473;SDS011;62922;-6.168;106.796;2022-12-07T06:10:41;26.38;;;21.50;;
74473;SDS011;62922;-6.168;106.796;2022-12-07T06:13:08;30.38;;;22.77;;
74473;SDS011;62922;-6.168;106.796;2022-12-07T06:15:35;31.27;;;23.20;;
74473;SDS011;62922;-6.168;106.796;2022-12-07T06:18:02;27.55;;;22.85;;
74473;SDS011;62922;-6.168;106.796;2022-12-07T06:20:28;33.38;;;22.25;;
74473;SDS011;62922;-6.168;106.796;2022-12-07T06:22:55;27.92;;;21.85;;
74473;SDS011;62922;-6.168;106.796;2022-12-07T06:25:21;29.33;;;22.60;;
74473;SDS011;62922;-6.168;106.796;2022-12-07T06:27:47;29.60;;;21.23;;
74473;SDS011;62922;-6.168;106.796;2022-12-07T06:30:13;27.13;;;21.52;;
74473;SDS011;62922;-6.168;106.796;2022-12-07T06:32:40;28.52;;;21.10;;
74473;SDS011;62922;-6.168;106.796;2022-12-07T06:35:06;27.30;;;20.23;;
74473;SDS011;62922;-6.168;106.796;2022-12-07T06:37:33;30.25;;;20.48;;
74473;SDS011;62922;-6.168;106.796;2022-12-07T06:39:59;26.42;;;20.35;;
74473;SDS011;62922;-6.168;106.796;2022-12-07T06:42:25;24.83;;;20.67;;
74473;SDS011;62922;-6.168;106.796;2022-12-07T06:44:52;28.40;;;20.20;;
74473;SDS011;62922;-6.168;106.796;2022-12-07T06:47:18;24.52;;;20.15;;
74473;SDS011;62922;-6.168;106.796;2022-12-07T06:49:47;27.88;;;19.17;;
74473;SDS011;62922;-6.168;106.796;2022-12-07T06:52:16;26.23;;;18.88;;
74473;SDS011;62922;-6.168;106.796;2022-12-07T06:54:44;25.30;;;19.23;;
74473;SDS011;62922;-6.168;106.796;2022-12-07T06:57:11;25.75;;;19.50;;
74473;SDS011;62922;-6.168;106.796;2022-12-07T06:59:37;25.15;;;19.45;;
74473;SDS011;62922;-6.168;106.796;2022-12-07T07:02:03;25.48;;;19.27;;
74473;SDS011;62922;-6.168;106.796;2022-12-07T07:04:30;22.85;;;18.42;;
74473;SDS011;62922;-6.168;106.796;2022-12-07T07:06:56;27.23;;;18.75;;
74473;SDS011;62922;-6.168;106.796;2022-12-07T07:09:22;23.92;;;17.88;;
74473;SDS011;62922;-6.168;106.796;2022-12-07T07:11:49;22.85;;;17.95;;
74473;SDS011;62922;-6.168;106.796;2022-12-07T07:14:16;23.73;;;18.02;;
74473;SDS011;62922;-6.168;106.796;2022-12-07T07:16:44;21.45;;;17.35;;
74473;SDS011;62922;-6.168;106.796;2022-12-07T07:19:10;24.63;;;17.77;;
74473;SDS011;62922;-6.168;106.796;2022-12-07T07:21:39;23.17;;;18.00;;
74473;SDS011;62922;-6.168;106.796;2022-12-07T07:24:08;28.70;;;18.75;;
74473;SDS011;62922;-6.168;106.796;2022-12-07T07:26:37;22.48;;;18.00;;
74473;SDS011;62922;-6.168;106.796;2022-12-07T07:29:04;21.20;;;17.30;;
74473;SDS011;62922;-6.168;106.796;2022-12-07T07:31:33;21.70;;;17.98;;
74473;SDS011;62922;-6.168;106.796;2022-12-07T07:34:01;22.00;;;17.73;;
74473;SDS011;62922;-6.168;106.796;2022-12-07T07:36:27;21.30;;;16.38;;
74473;SDS011;62922;-6.168;106.796;2022-12-07T07:38:53;21.92;;;17.70;;
74473;SDS011;62922;-6.168;106.796;2022-12-07T07:41:19;23.67;;;17.95;;
74473;SDS011;62922;-6.168;106.796;2022-12-07T07:43:46;20.48;;;17.42;;
74473;SDS011;62922;-6.168;106.796;2022-12-07T07:46:12;20.85;;;17.10;;
74473;SDS011;62922;-6.168;106.796;2022-12-07T07:48:38;23.27;;;16.85;;
74473;SDS011;62922;-6.168;106.796;2022-12-07T07:51:05;24.02;;;17.85;;
74473;SDS011;62922;-6.168;106.796;2022-12-07T07:53:32;21.08;;;17.33;;
74473;SDS011;62922;-6.168;106.796;2022-12-07T07:55:59;21.20;;;17.40;;
74473;SDS011;62922;-6.168;106.796;2022-12-07T07:58:27;21.65;;;17.92;;
74473;SDS011;62922;-6.168;106.796;2022-12-07T08:00:54;21.25;;;16.90;;
74473;SDS011;62922;-6.168;106.796;2022-12-07T08:03:20;24.73;;;18.30;;
74473;SDS011;62922;-6.168;106.796;2022-12-07T08:05:49;23.48;;;17.55;;
74473;SDS011;62922;-6.168;106.796;2022-12-07T08:08:15;19.10;;;16.30;;
74473;SDS011;62922;-6.168;106.796;2022-12-07T08:10:41;23.65;;;17.73;;
74473;SDS011;62922;-6.168;106.796;2022-12-07T08:13:07;21.98;;;17.33;;
74473;SDS011;62922;-6.168;106.796;2022-12-07T08:15:37;22.75;;;17.45;;
74473;SDS011;62922;-6.168;106.796;2022-12-07T08:18:05;21.15;;;16.80;;
74473;SDS011;62922;-6.168;106.796;2022-12-07T08:20:31;19.45;;;16.65;;
74473;SDS011;62922;-6.168;106.796;2022-12-07T08:23:00;21.90;;;16.88;;
74473;SDS011;62922;-6.168;106.796;2022-12-07T08:25:29;20.65;;;17.58;;
74473;SDS011;62922;-6.168;106.796;2022-12-07T08:27:58;18.98;;;16.92;;
74473;SDS011;62922;-6.168;106.796;2022-12-07T08:30:28;19.55;;;16.50;;
74473;SDS011;62922;-6.168;106.796;2022-12-07T08:32:55;20.58;;;16.88;;
74473;SDS011;62922;-6.168;106.796;2022-12-07T08:35:21;21.55;;;16.63;;
74473;SDS011;62922;-6.168;106.796;2022-12-07T08:37:48;19.83;;;16.52;;
74473;SDS011;62922;-6.168;106.796;2022-12-07T08:40:17;20.23;;;16.85;;
74473;SDS011;62922;-6.168;106.796;2022-12-07T08:42:48;20.83;;;17.15;;
74473;SDS011;62922;-6.168;106.796;2022-12-07T08:45:16;20.23;;;16.63;;
74473;SDS011;62922;-6.168;106.796;2022-12-07T08:47:46;20.00;;;16.60;;
74473;SDS011;62922;-6.168;106.796;2022-12-07T08:50:20;19.83;;;16.73;;
74473;SDS011;62922;-6.168;106.796;2022-12-07T08:52:51;18.50;;;16.35;;
74473;SDS011;62922;-6.168;106.796;2022-12-07T08:55:20;18.00;;;15.68;;
74473;SDS011;62922;-6.168;106.796;2022-12-07T08:57:47;20.08;;;16.20;;
74473;SDS011;62922;-6.168;106.796;2022-12-07T09:00:14;17.88;;;15.80;;
74473;SDS011;62922;-6.168;106.796;2022-12-07T09:02:43;21.77;;;16.88;;
74473;SDS011;62922;-6.168;106.796;2022-12-07T09:05:09;18.70;;;15.63;;
74473;SDS011;62922;-6.168;106.796;2022-12-07T09:07:36;21.98;;;16.52;;
74473;SDS011;62922;-6.168;106.796;2022-12-07T09:10:04;23.65;;;16.63;;
74473;SDS011;62922;-6.168;106.796;2022-12-07T09:12:31;19.83;;;16.10;;
74473;SDS011;62922;-6.168;106.796;2022-12-07T09:14:57;23.10;;;15.38;;
74473;SDS011;62922;-6.168;106.796;2022-12-07T09:17:26;20.33;;;16.25;;
74473;SDS011;62922;-6.168;106.796;2022-12-07T09:19:55;19.33;;;15.68;;
74473;SDS011;62922;-6.168;106.796;2022-12-07T09:22:21;19.02;;;15.20;;
74473;SDS011;62922;-6.168;106.796;2022-12-07T09:24:48;20.35;;;15.30;;
74473;SDS011;62922;-6.168;106.796;2022-12-07T09:27:16;17.60;;;14.45;;
74473;SDS011;62922;-6.168;106.796;2022-12-07T09:29:43;18.90;;;14.68;;
74473;SDS011;62922;-6.168;106.796;2022-12-07T09:32:10;16.80;;;14.23;;
74473;SDS011;62922;-6.168;106.796;2022-12-07T09:34:36;20.02;;;14.48;;
74473;SDS011;62922;-6.168;106.796;2022-12-07T09:37:02;20.42;;;15.18;;
74473;SDS011;62922;-6.168;106.796;2022-12-07T09:39:32;16.92;;;14.57;;
74473;SDS011;62922;-6.168;106.796;2022-12-07T09:41:58;18.63;;;14.25;;
74473;SDS011;62922;-6.168;106.796;2022-12-07T09:44:28;17.73;;;14.20;;
74473;SDS011;62922;-6.168;106.796;2022-12-07T09:46:57;16.10;;;13.55;;
74473;SDS011;62922;-6.168;106.796;2022-12-07T09:49:24;15.48;;;13.73;;
74473;SDS011;62922;-6.168;106.796;2022-12-07T09:52:18;16.13;;;13.60;;
74473;SDS011;62922;-6.168;106.796;2022-12-07T09:54:43;15.35;;;13.13;;
74473;SDS011;62922;-6.168;106.796;2022-12-07T09:57:14;17.20;;;13.02;;
74473;SDS011;62922;-6.168;106.796;2022-12-07T09:59:40;15.18;;;12.65;;
74473;SDS011;62922;-6.168;106.796;2022-12-07T10:04:55;16.23;;;12.60;;
74473;SDS011;62922;-6.168;106.796;2022-12-07T10:07:23;17.05;;;13.57;;
74473;SDS011;62922;-6.168;106.796;2022-12-07T10:09:50;15.43;;;12.10;;
74473;SDS011;62922;-6.168;106.796;2022-12-07T10:12:16;15.65;;;12.48;;
74473;SDS011;62922;-6.168;106.796;2022-12-07T10:15:04;15.13;;;11.70;;
74473;SDS011;62922;-6.168;106.796;2022-12-07T10:17:34;14.43;;;11.43;;
74473;SDS011;62922;-6.168;106.796;2022-12-07T10:20:12;13.68;;;11.35;;
74473;SDS011;62922;-6.168;106.796;2022-12-07T10:23:00;12.75;;;10.95;;
74473;SDS011;62922;-6.168;106.796;2022-12-07T10:25:31;15.13;;;12.18;;
74473;SDS011;62922;-6.168;106.796;2022-12-07T10:30:52;15.88;;;11.30;;
74473;SDS011;62922;-6.168;106.796;2022-12-07T10:33:32;12.50;;;11.15;;
74473;SDS011;62922;-6.168;106.796;2022-12-07T10:36:20;14.50;;;11.02;;
74473;SDS011;62922;-6.168;106.796;2022-12-07T10:38:51;14.05;;;10.68;;
74473;SDS011;62922;-6.168;106.796;2022-12-07T10:41:25;13.32;;;11.07;;
74473;SDS011;62922;-6.168;106.796;2022-12-07T10:43:55;13.45;;;11.07;;
74473;SDS011;62922;-6.168;106.796;2022-12-07T10:51:25;13.18;;;11.15;;
74473;SDS011;62922;-6.168;106.796;2022-12-07T11:10:26;11.00;;;9.73;;
74473;SDS011;62922;-6.168;106.796;2022-12-07T11:13:20;12.15;;;9.80;;
74473;SDS011;62922;-6.168;106.796;2022-12-07T11:34:36;11.23;;;9.40;;
74473;SDS011;62922;-6.168;106.796;2022-12-07T11:37:13;11.65;;;9.10;;
74473;SDS011;62922;-6.168;106.796;2022-12-07T11:39:47;13.43;;;9.50;;
74473;SDS011;62922;-6.168;106.796;2022-12-07T11:42:24;12.95;;;8.93;;
74473;SDS011;62922;-6.168;106.796;2022-12-07T11:44:53;12.60;;;8.90;;
74473;SDS011;62922;-6.168;106.796;2022-12-07T11:47:28;10.40;;;8.70;;
74473;SDS011;62922;-6.168;106.796;2022-12-07T11:50:14;11.93;;;8.90;;
74473;SDS011;62922;-6.168;106.796;2022-12-07T11:52:48;11.55;;;8.88;;
74473;SDS011;62922;-6.168;106.796;2022-12-07T11:55:24;10.80;;;8.90;;
74473;SDS011;62922;-6.168;106.796;2022-12-07T11:58:08;12.50;;;8.55;;
74473;SDS011;62922;-6.168;106.796;2022-12-07T12:00:39;12.93;;;9.20;;
74473;SDS011;62922;-6.168;106.796;2022-12-07T12:03:09;12.55;;;8.98;;
74473;SDS011;62922;-6.168;106.796;2022-12-07T12:05:41;13.30;;;8.82;;
74473;SDS011;62922;-6.168;106.796;2022-12-07T12:13:23;10.60;;;8.48;;
74473;SDS011;62922;-6.168;106.796;2022-12-07T12:21:26;11.55;;;8.75;;
74473;SDS011;62922;-6.168;106.796;2022-12-07T12:26:24;10.25;;;8.25;;
74473;SDS011;62922;-6.168;106.796;2022-12-07T12:28:56;12.70;;;8.23;;
74473;SDS011;62922;-6.168;106.796;2022-12-07T12:34:00;11.27;;;8.43;;
74473;SDS011;62922;-6.168;106.796;2022-12-07T12:46:51;27.05;;;16.10;;
74473;SDS011;62922;-6.168;106.796;2022-12-07T12:54:36;29.02;;;19.63;;
74473;SDS011;62922;-6.168;106.796;2022-12-07T12:57:07;28.13;;;20.30;;
74473;SDS011;62922;-6.168;106.796;2022-12-07T12:59:39;31.02;;;22.02;;
74473;SDS011;62922;-6.168;106.796;2022-12-07T13:13:02;31.08;;;21.63;;
74473;SDS011;62922;-6.168;106.796;2022-12-07T13:15:32;33.75;;;21.42;;
74473;SDS011;62922;-6.168;106.796;2022-12-07T13:18:00;35.10;;;22.13;;
74473;SDS011;62922;-6.168;106.796;2022-12-07T13:23:00;31.35;;;21.25;;
74473;SDS011;62922;-6.168;106.796;2022-12-07T13:28:04;29.10;;;20.67;;
74473;SDS011;62922;-6.168;106.796;2022-12-07T13:30:44;28.50;;;20.45;;
74473;SDS011;62922;-6.168;106.796;2022-12-07T13:33:26;29.40;;;20.17;;
74473;SDS011;62922;-6.168;106.796;2022-12-07T13:35:54;32.53;;;20.40;;
74473;SDS011;62922;-6.168;106.796;2022-12-07T13:38:24;28.95;;;21.35;;
74473;SDS011;62922;-6.168;106.796;2022-12-07T13:43:30;30.40;;;21.90;;
74473;SDS011;62922;-6.168;106.796;2022-12-07T13:45:59;30.33;;;21.25;;
74473;SDS011;62922;-6.168;106.796;2022-12-07T13:48:31;30.17;;;21.88;;
74473;SDS011;62922;-6.168;106.796;2022-12-07T13:51:01;29.50;;;20.20;;
74473;SDS011;62922;-6.168;106.796;2022-12-07T13:53:28;27.98;;;21.05;;
74473;SDS011;62922;-6.168;106.796;2022-12-07T13:55:57;28.63;;;19.92;;
74473;SDS011;62922;-6.168;106.796;2022-12-07T13:58:25;30.30;;;20.90;;
74473;SDS011;62922;-6.168;106.796;2022-12-07T14:00:56;31.33;;;21.35;;
74473;SDS011;62922;-6.168;106.796;2022-12-07T14:03:27;32.35;;;21.48;;
74473;SDS011;62922;-6.168;106.796;2022-12-07T14:08:29;30.60;;;21.42;;
74473;SDS011;62922;-6.168;106.796;2022-12-07T14:10:56;33.10;;;22.65;;
74473;SDS011;62922;-6.168;106.796;2022-12-07T14:15:56;35.60;;;23.38;;
74473;SDS011;62922;-6.168;106.796;2022-12-07T14:18:48;33.97;;;23.08;;
74473;SDS011;62922;-6.168;106.796;2022-12-07T14:23:37;32.00;;;22.67;;
74473;SDS011;62922;-6.168;106.796;2022-12-07T14:26:12;29.08;;;22.25;;
74473;SDS011;62922;-6.168;106.796;2022-12-07T14:28:42;35.10;;;24.25;;
74473;SDS011;62922;-6.168;106.796;2022-12-07T14:31:12;36.97;;;23.65;;
74473;SDS011;62922;-6.168;106.796;2022-12-07T14:33:39;29.23;;;23.27;;
74473;SDS011;62922;-6.168;106.796;2022-12-07T14:36:10;32.10;;;23.00;;
74473;SDS011;62922;-6.168;106.796;2022-12-07T14:38:38;31.52;;;23.27;;
74473;SDS011;62922;-6.168;106.796;2022-12-07T14:41:09;34.00;;;23.52;;
74473;SDS011;62922;-6.168;106.796;2022-12-07T14:43:45;30.90;;;23.15;;
74473;SDS011;62922;-6.168;106.796;2022-12-07T14:46:12;30.80;;;23.20;;
74473;SDS011;62922;-6.168;106.796;2022-12-07T14:48:38;33.20;;;23.02;;
74473;SDS011;62922;-6.168;106.796;2022-12-07T14:51:04;28.33;;;21.92;;
74473;SDS011;62922;-6.168;106.796;2022-12-07T14:53:35;28.52;;;21.42;;
74473;SDS011;62922;-6.168;106.796;2022-12-07T14:56:04;28.20;;;21.67;;
74473;SDS011;62922;-6.168;106.796;2022-12-07T14:58:31;30.77;;;22.17;;
74473;SDS011;62922;-6.168;106.796;2022-12-07T15:00:58;30.58;;;21.85;;
74473;SDS011;62922;-6.168;106.796;2022-12-07T15:03:25;27.52;;;21.52;;
74473;SDS011;62922;-6.168;106.796;2022-12-07T15:05:51;28.25;;;21.38;;
74473;SDS011;62922;-6.168;106.796;2022-12-07T15:08:18;28.50;;;20.65;;
74473;SDS011;62922;-6.168;106.796;2022-12-07T15:10:44;26.15;;;19.60;;
74473;SDS011;62922;-6.168;106.796;2022-12-07T15:13:10;26.52;;;19.95;;
74473;SDS011;62922;-6.168;106.796;2022-12-07T15:15:39;26.52;;;20.60;;
74473;SDS011;62922;-6.168;106.796;2022-12-07T15:18:06;24.80;;;19.25;;
74473;SDS011;62922;-6.168;106.796;2022-12-07T15:20:32;23.90;;;18.55;;
74473;SDS011;62922;-6.168;106.796;2022-12-07T15:22:59;24.80;;;18.88;;
74473;SDS011;62922;-6.168;106.796;2022-12-07T15:25:25;25.65;;;17.88;;
74473;SDS011;62922;-6.168;106.796;2022-12-07T15:27:51;21.35;;;17.60;;
74473;SDS011;62922;-6.168;106.796;2022-12-07T15:30:18;21.60;;;16.27;;
74473;SDS011;62922;-6.168;106.796;2022-12-07T15:32:48;21.25;;;17.23;;
74473;SDS011;62922;-6.168;106.796;2022-12-07T15:35:15;20.70;;;15.40;;
74473;SDS011;62922;-6.168;106.796;2022-12-07T15:37:41;19.27;;;15.70;;
74473;SDS011;62922;-6.168;106.796;2022-12-07T15:40:11;23.05;;;16.05;;
74473;SDS011;62922;-6.168;106.796;2022-12-07T15:42:39;19.17;;;15.02;;
74473;SDS011;62922;-6.168;106.796;2022-12-07T15:45:08;19.95;;;15.57;;
74473;SDS011;62922;-6.168;106.796;2022-12-07T15:47:36;19.45;;;14.25;;
74473;SDS011;62922;-6.168;106.796;2022-12-07T15:50:04;19.40;;;14.23;;
74473;SDS011;62922;-6.168;106.796;2022-12-07T15:52:31;20.25;;;14.65;;
74473;SDS011;62922;-6.168;106.796;2022-12-07T15:54:58;20.13;;;14.55;;
74473;SDS011;62922;-6.168;106.796;2022-12-07T15:57:27;19.15;;;14.88;;
74473;SDS011;62922;-6.168;106.796;2022-12-07T15:59:54;19.35;;;14.52;;
74473;SDS011;62922;-6.168;106.796;2022-12-07T16:02:21;21.38;;;14.05;;
74473;SDS011;62922;-6.168;106.796;2022-12-07T16:04:47;19.27;;;13.82;;
74473;SDS011;62922;-6.168;106.796;2022-12-07T16:07:14;19.75;;;14.10;;
74473;SDS011;62922;-6.168;106.796;2022-12-07T16:09:41;17.00;;;14.02;;
74473;SDS011;62922;-6.168;106.796;2022-12-07T16:12:09;18.67;;;13.27;;
74473;SDS011;62922;-6.168;106.796;2022-12-07T16:14:36;17.58;;;13.48;;
74473;SDS011;62922;-6.168;106.796;2022-12-07T16:17:03;20.27;;;13.63;;
74473;SDS011;62922;-6.168;106.796;2022-12-07T16:19:33;17.73;;;13.38;;
74473;SDS011;62922;-6.168;106.796;2022-12-07T16:22:03;20.45;;;13.27;;
74473;SDS011;62922;-6.168;106.796;2022-12-07T16:24:30;19.13;;;13.18;;